Canada Rosquin, Argentina
Current Conditions -  °F | °C
As of 9:00 AM on Sunday 23 Nov 2014 (Local Time) from SAAR Reporting Station
Clear Clear  
Wind Chill: 73°   Ceiling: Unl
Heat Index: 73°   Visibility: 6mi
Dew Point: 55°   Wind: 15mph
Humidity: 53%   Direction: 340°NNW
Pressure: 29.88"   Gusts: NA
Location:  32.05°S, 61.62°W
Report Text: SAAR 231200Z 34013KT CAVOK 23/13 Q1012
Loading
Personal Weather Stations






























Interactive Weather Map New forecast layout! Learn more

10-Day Weather Forecast

Advertisements
Track Severe Weather on mobile